Time;durP1;ratioP1;P1;durP2;ratioP2;P2;SDS_P1;SDS_P2;PMS_P1;PMS_P2;Temp;Humidity;BMP_temperature;BMP_pressure;BME280_temperature;BME280_humidity;BME280_pressure;Samples;Min_cycle;Max_cycle;Signal;HPM_P1;HPM_P2
2021/11/17 02:27:39;;;;;;;20.23;14.20;;;8.40;99.90;;;;;;5052014;28;20428;-50
2021/11/17 02:30:20;;;;;;;23.40;15.77;;;8.30;99.90;;;;;;5051999;28;20427;-50
2021/11/17 02:32:59;;;;;;;19.37;14.10;;;8.20;99.90;;;;;;5052329;28;20519;-51
2021/11/17 02:35:40;;;;;;;21.43;15.00;;;7.60;99.90;;;;;;5051861;28;20426;-51
2021/11/17 02:38:23;;;;;;;22.17;14.80;;;8.30;99.90;;;;;;5051419;28;20450;-50
2021/11/17 02:41:07;;;;;;;19.90;14.23;;;8.40;99.90;;;;;;5051782;28;20441;-50
2021/11/17 02:43:56;;;;;;;24.43;15.13;;;8.00;99.90;;;;;;5051842;28;20427;-50
2021/11/17 02:46:35;;;;;;;21.77;15.47;;;8.50;99.90;;;;;;5051663;28;20449;-51
2021/11/17 02:49:30;;;;;;;22.20;16.27;;;8.10;99.90;;;;;;5051298;28;20472;-51
2021/11/17 02:52:18;;;;;;;20.67;13.87;;;8.30;99.90;;;;;;5051626;28;20436;-50
2021/11/17 02:55:02;;;;;;;25.73;16.27;;;8.20;99.90;;;;;;5051743;28;20945;-50
2021/11/17 02:57:43;;;;;;;20.77;14.37;;;8.30;99.90;;;;;;5051465;28;20458;-50
2021/11/17 03:00:45;;;;;;;20.73;14.53;;;8.30;99.90;;;;;;5051686;28;20909;-50
2021/11/17 03:03:23;;;;;;;17.33;12.90;;;8.10;99.90;;;;;;5051554;28;20441;-51
2021/11/17 03:06:03;;;;;;;25.70;14.40;;;7.80;99.90;;;;;;5051526;28;20469;-51
2021/11/17 03:09:05;;;;;;;21.00;12.50;;;8.20;99.90;;;;;;5051207;28;20396;-51
2021/11/17 03:11:56;;;;;;;18.93;13.90;;;8.10;99.90;;;;;;5051095;28;20449;-51
2021/11/17 03:14:45;;;;;;;17.93;13.73;;;8.40;99.90;;;;;;5051446;28;20422;-50
2021/11/17 03:17:27;;;;;;;18.80;13.23;;;8.30;99.90;;;;;;5051183;28;20478;-51
2021/11/17 03:20:08;;;;;;;16.63;13.40;;;8.10;99.90;;;;;;5050966;28;20430;-51
2021/11/17 03:22:49;;;;;;;16.83;12.53;;;8.10;99.90;;;;;;5051290;28;20427;-51
2021/11/17 03:25:34;;;;;;;17.87;13.40;;;8.20;99.90;;;;;;5051318;28;20488;-51
2021/11/17 03:28:14;;;;;;;22.23;14.13;;;8.20;99.90;;;;;;5050850;28;20816;-50
2021/11/17 03:31:05;;;;;;;19.93;15.40;;;8.40;99.90;;;;;;5051238;28;20434;-51
2021/11/17 03:33:48;;;;;;;18.33;13.90;;;8.10;99.90;;;;;;5051281;28;20949;-51
2021/11/17 03:36:39;;;;;;;16.23;12.20;;;8.10;99.90;;;;;;5051158;28;20451;-51
2021/11/17 03:39:24;;;;;;;16.73;10.60;;;8.30;99.90;;;;;;5041288;28;20796;-50
2021/11/17 03:42:10;;;;;;;15.37;11.17;;;8.00;99.90;;;;;;5051474;28;20434;-51
2021/11/17 03:45:04;;;;;;;19.20;11.57;;;8.20;99.90;;;;;;5051169;28;20470;-51
2021/11/17 03:47:45;;;;;;;19.77;12.60;;;8.10;99.90;;;;;;5051042;28;20728;-51
2021/11/17 03:50:25;;;;;;;13.40;10.33;;;8.10;99.90;;;;;;5051071;28;20442;-51
2021/11/17 03:53:11;;;;;;;16.60;11.43;;;7.90;99.90;;;;;;5055338;28;20482;-50
2021/11/17 03:55:55;;;;;;;13.73;11.20;;;8.10;99.90;;;;;;5055288;28;20449;-50
2021/11/17 03:58:33;;;;;;;14.97;10.60;;;8.10;99.90;;;;;;5054564;28;20957;-51
2021/11/17 04:01:27;;;;;;;19.93;15.07;;;8.20;99.90;;;;;;5054917;28;20468;-51
2021/11/17 04:04:16;;;;;;;12.20;9.67;;;8.20;99.90;;;;;;5054866;28;20437;-50
2021/11/17 04:06:58;;;;;;;15.60;10.17;;;8.20;99.90;;;;;;5054614;28;20451;-51
2021/11/17 04:09:37;;;;;;;14.40;10.90;;;8.20;99.90;;;;;;5054244;28;20455;-51
2021/11/17 04:12:19;;;;;;;15.67;11.93;;;8.50;99.90;;;;;;5054458;28;20780;-49
2021/11/17 04:15:00;;;;;;;17.90;12.60;;;8.10;99.90;;;;;;5054594;28;20417;-50
2021/11/17 04:17:42;;;;;;;16.73;12.43;;;8.20;99.90;;;;;;5054234;28;20476;-49
2021/11/17 04:20:24;;;;;;;15.50;11.30;;;8.00;99.90;;;;;;5054251;28;20429;-50
2021/11/17 04:23:04;;;;;;;12.80;9.10;;;7.80;99.90;;;;;;5054246;28;20442;-50
2021/11/17 04:25:57;;;;;;;14.57;9.20;;;8.20;99.90;;;;;;5053962;28;20477;-50
2021/11/17 04:28:49;;;;;;;12.50;9.77;;;7.90;99.90;;;;;;5036047;28;20450;-50
2021/11/17 04:31:36;;;;;;;13.00;9.63;;;8.00;99.90;;;;;;5053990;28;20751;-51
2021/11/17 04:34:29;;;;;;;13.77;10.13;;;8.20;99.90;;;;;;5054043;28;20444;-50
2021/11/17 04:37:19;;;;;;;15.03;9.30;;;8.10;99.90;;;;;;5053669;28;20468;-50
2021/11/17 04:40:07;;;;;;;11.30;8.70;;;7.90;99.90;;;;;;5036434;28;20453;-50
2021/11/17 04:42:50;;;;;;;14.70;10.43;;;8.20;99.90;;;;;;5053846;28;20445;-51
2021/11/17 04:45:28;;;;;;;14.10;8.50;;;8.00;99.90;;;;;;5053872;28;20469;-50
2021/11/17 04:48:08;;;;;;;14.30;8.97;;;7.60;99.90;;;;;;5053284;28;20419;-50
2021/11/17 04:50:54;;;;;;;11.37;8.57;;;7.80;99.90;;;;;;5054020;28;20428;-49
2021/11/17 04:53:41;;;;;;;11.87;7.17;;;7.90;99.90;;;;;;5053789;28;20438;-50
2021/11/17 04:56:21;;;;;;;9.60;7.67;;;8.40;99.90;;;;;;5053808;28;20433;-50
2021/11/17 04:59:02;;;;;;;8.37;6.50;;;7.70;99.90;;;;;;5053856;28;20438;-50
2021/11/17 05:01:48;;;;;;;14.07;8.70;;;8.00;99.90;;;;;;5053824;28;20433;-50
2021/11/17 05:04:30;;;;;;;11.03;8.07;;;7.90;99.90;;;;;;5053556;28;20419;-51
2021/11/17 05:07:09;;;;;;;10.80;8.20;;;7.80;99.90;;;;;;5053271;28;20458;-50
2021/11/17 05:09:45;;;;;;;12.13;8.77;;;8.00;99.90;;;;;;5052987;28;20919;-51
2021/11/17 05:12:29;;;;;;;11.80;9.10;;;8.30;99.90;;;;;;5053350;28;20452;-51
2021/11/17 05:15:04;;;;;;;10.10;8.23;;;7.90;99.90;;;;;;5053113;28;20425;-51
2021/11/17 05:17:40;;;;;;;12.40;8.30;;;7.80;99.90;;;;;;5053400;28;20465;-50
2021/11/17 05:20:22;;;;;;;8.77;7.53;;;7.50;99.90;;;;;;5053187;28;20929;-51
2021/11/17 05:23:02;;;;;;;9.10;7.57;;;7.90;99.90;;;;;;5053266;28;20437;-50
2021/11/17 05:25:53;;;;;;;8.23;7.33;;;7.80;99.90;;;;;;5052704;28;20478;-50
2021/11/17 05:28:39;;;;;;;10.67;8.27;;;8.00;99.90;;;;;;5052636;28;20412;-51
2021/11/17 05:31:30;;;;;;;11.60;9.90;;;7.70;99.90;;;;;;5052870;28;20429;-49
2021/11/17 05:34:18;;;;;;;11.00;9.03;;;8.00;99.90;;;;;;5052775;28;20768;-52
2021/11/17 05:36:53;;;;;;;12.40;9.50;;;7.30;99.90;;;;;;5048348;28;20484;-50
2021/11/17 05:39:33;;;;;;;14.43;10.50;;;7.40;99.90;;;;;;5052346;28;20506;-50
2021/11/17 05:42:15;;;;;;;12.20;10.10;;;7.90;99.90;;;;;;5052640;28;20442;-50
2021/11/17 05:44:54;;;;;;;13.87;9.83;;;8.00;99.90;;;;;;5052632;28;20429;-50
2021/11/17 05:47:33;;;;;;;13.13;11.37;;;7.80;99.90;;;;;;5052713;28;20456;-50
2021/11/17 05:50:14;;;;;;;10.70;8.33;;;8.20;99.90;;;;;;5052364;28;20414;-51
2021/11/17 05:52:56;;;;;;;12.90;9.63;;;7.90;99.90;;;;;;5052507;28;20437;-51
2021/11/17 05:55:39;;;;;;;13.90;10.07;;;7.70;99.90;;;;;;5052649;28;20437;-50
2021/11/17 05:58:20;;;;;;;10.60;9.07;;;7.80;99.90;;;;;;5052097;28;20428;-51
2021/11/17 06:01:04;;;;;;;12.43;8.97;;;7.40;99.90;;;;;;5052424;28;20445;-50
2021/11/17 06:03:43;;;;;;;14.40;9.10;;;7.60;99.90;;;;;;5052261;28;20441;-49
2021/11/17 06:06:09;;;;;;;9.97;7.53;;;7.60;99.90;;;;;;5052066;28;20491;-50
2021/11/17 06:08:36;;;;;;;10.90;9.27;;;7.70;99.90;;;;;;5051627;28;20427;-50
2021/11/17 06:11:05;;;;;;;10.60;8.93;;;7.80;99.90;;;;;;5051984;28;20408;-51
2021/11/17 06:13:33;;;;;;;12.80;8.37;;;7.60;99.90;;;;;;5051454;28;20436;-51
2021/11/17 06:16:00;;;;;;;11.37;8.70;;;7.80;99.90;;;;;;5051673;28;20495;-51
2021/11/17 06:18:30;;;;;;;14.00;9.90;;;7.30;99.90;;;;;;5051140;28;20446;-50
2021/11/17 06:20:57;;;;;;;11.43;9.20;;;7.70;99.90;;;;;;5051811;28;20425;-51
2021/11/17 06:23:27;;;;;;;11.73;8.87;;;7.60;99.90;;;;;;5051673;28;20416;-50
2021/11/17 06:25:57;;;;;;;17.70;10.33;;;8.00;99.90;;;;;;5051892;28;20468;-51
2021/11/17 06:28:27;;;;;;;19.70;10.23;;;7.80;99.90;;;;;;5051174;28;20415;-51
2021/11/17 06:30:54;;;;;;;11.43;10.13;;;7.60;99.90;;;;;;5051485;28;20423;-51
2021/11/17 06:33:21;;;;;;;12.90;11.10;;;7.70;99.90;;;;;;5051475;28;20457;-51
2021/11/17 06:35:48;;;;;;;17.30;11.23;;;8.10;99.90;;;;;;5051364;28;20428;-50
2021/11/17 06:38:17;;;;;;;19.40;12.60;;;7.80;99.90;;;;;;5050515;28;20436;-53
2021/11/17 06:40:45;;;;;;;17.73;11.50;;;7.70;99.90;;;;;;5051028;28;20479;-52
2021/11/17 06:43:13;;;;;;;17.77;11.00;;;7.70;99.90;;;;;;5050933;28;20463;-52
2021/11/17 06:45:43;;;;;;;14.80;10.10;;;8.30;99.90;;;;;;5050394;28;20828;-51
2021/11/17 06:48:12;;;;;;;16.70;13.00;;;7.70;99.90;;;;;;5050729;28;21018;-52
2021/11/17 06:50:41;;;;;;;14.67;11.17;;;7.70;99.90;;;;;;5050530;28;20442;-52
2021/11/17 06:53:08;;;;;;;16.57;10.97;;;7.70;99.90;;;;;;5050396;28;20860;-53
2021/11/17 06:55:35;;;;;;;11.30;10.10;;;7.70;99.90;;;;;;5050719;28;20436;-51
2021/11/17 06:58:02;;;;;;;14.90;10.73;;;7.40;99.90;;;;;;5050608;28;20431;-51
2021/11/17 07:00:31;;;;;;;14.93;11.03;;;7.40;99.90;;;;;;5051044;28;20440;-51
2021/11/17 07:02:59;;;;;;;17.53;10.60;;;7.70;99.90;;;;;;5051012;28;20433;-51
2021/11/17 07:05:26;;;;;;;14.73;11.07;;;7.60;99.90;;;;;;5050917;28;20452;-51
2021/11/17 07:07:56;;;;;;;19.53;11.50;;;7.70;99.90;;;;;;5050132;28;20432;-50
2021/11/17 07:10:25;;;;;;;15.00;10.70;;;8.00;99.90;;;;;;5051245;28;20797;-50
2021/11/17 07:12:51;;;;;;;16.13;11.50;;;7.30;99.90;;;;;;5050723;28;20503;-52
2021/11/17 07:15:18;;;;;;;14.47;10.50;;;7.80;99.90;;;;;;5051000;28;20412;-52
2021/11/17 07:17:45;;;;;;;16.67;12.20;;;7.80;99.90;;;;;;5050488;28;20473;-51
2021/11/17 07:20:15;;;;;;;14.73;11.47;;;8.00;99.90;;;;;;5050811;28;20502;-51
2021/11/17 07:22:42;;;;;;;18.37;12.27;;;8.00;99.90;;;;;;5050652;28;20437;-50
2021/11/17 07:25:12;;;;;;;16.20;11.93;;;8.00;99.90;;;;;;5051120;28;20769;-51
2021/11/17 07:27:39;;;;;;;16.77;11.20;;;7.80;99.90;;;;;;5054194;28;20962;-50
2021/11/17 07:30:08;;;;;;;18.67;13.30;;;7.80;99.90;;;;;;5054386;28;20453;-52
2021/11/17 07:32:34;;;;;;;14.60;11.37;;;8.00;99.90;;;;;;5054284;28;20442;-50
2021/11/17 07:35:02;;;;;;;18.97;13.50;;;7.40;99.90;;;;;;5054850;28;20777;-50
2021/11/17 07:37:30;;;;;;;18.80;12.97;;;7.90;99.90;;;;;;5054537;28;20467;-50
2021/11/17 07:39:56;;;;;;;18.60;12.83;;;7.90;99.90;;;;;;5054139;28;20442;-51
2021/11/17 07:42:23;;;;;;;17.83;14.00;;;8.30;99.90;;;;;;5054101;28;20432;-51
2021/11/17 07:44:52;;;;;;;22.70;13.70;;;7.80;99.90;;;;;;5036281;28;20441;-52
2021/11/17 07:47:19;;;;;;;17.10;12.27;;;7.30;99.90;;;;;;5054020;28;20485;-51
2021/11/17 07:49:45;;;;;;;18.17;12.83;;;7.70;99.90;;;;;;5054107;28;20443;-50
2021/11/17 07:52:12;;;;;;;21.47;12.50;;;8.00;99.90;;;;;;5036529;28;20450;-51
2021/11/17 07:54:40;;;;;;;16.50;12.27;;;7.90;99.90;;;;;;5054423;28;20434;-51
2021/11/17 07:57:08;;;;;;;16.13;12.80;;;7.40;99.90;;;;;;5053985;28;20566;-50
2021/11/17 07:59:36;;;;;;;14.60;11.30;;;8.10;99.90;;;;;;5053836;28;20476;-51
2021/11/17 08:02:08;;;;;;;18.03;13.17;;;7.80;99.90;;;;;;5053855;28;20436;-50
2021/11/17 08:04:36;;;;;;;15.60;11.90;;;8.00;99.90;;;;;;5053919;28;20462;-51
2021/11/17 08:07:05;;;;;;;14.27;11.40;;;8.40;99.90;;;;;;5054026;28;20464;-51
2021/11/17 08:09:32;;;;;;;15.80;11.57;;;8.10;99.90;;;;;;5053649;28;20420;-51
2021/11/17 08:12:00;;;;;;;16.57;11.03;;;7.90;99.90;;;;;;5053625;28;20434;-51
2021/11/17 08:14:27;;;;;;;16.17;13.07;;;8.10;99.90;;;;;;5053388;28;20453;-51
2021/11/17 08:16:53;;;;;;;16.60;12.27;;;8.20;99.90;;;;;;5053603;28;20545;-51
2021/11/17 08:19:20;;;;;;;16.43;11.50;;;8.00;99.90;;;;;;5053142;28;20445;-50
2021/11/17 08:21:47;;;;;;;16.40;11.90;;;8.50;99.90;;;;;;5053887;28;20444;-51
2021/11/17 08:24:13;;;;;;;17.47;12.10;;;7.50;99.90;;;;;;5053363;28;20438;-50
2021/11/17 08:26:40;;;;;;;14.97;11.10;;;8.00;99.90;;;;;;5053145;28;20545;-51
2021/11/17 08:29:09;;;;;;;12.23;10.60;;;8.20;99.90;;;;;;5053099;28;20516;-52
2021/11/17 08:31:36;;;;;;;16.93;11.80;;;8.30;99.90;;;;;;5053306;28;20491;-51
2021/11/17 08:34:04;;;;;;;14.73;11.77;;;8.00;99.90;;;;;;5052961;28;20429;-52
2021/11/17 08:36:32;;;;;;;17.73;11.53;;;7.80;99.90;;;;;;5052709;28;20446;-51
2021/11/17 08:38:59;;;;;;;16.37;10.60;;;7.60;99.90;;;;;;5053109;28;20446;-52
2021/11/17 08:41:26;;;;;;;16.80;12.67;;;7.50;99.90;;;;;;5052830;28;20420;-52
2021/11/17 08:43:53;;;;;;;16.67;12.20;;;8.00;99.90;;;;;;5053344;28;20492;-52
2021/11/17 08:46:22;;;;;;;18.43;12.20;;;8.00;99.90;;;;;;5053071;28;20529;-50
2021/11/17 08:48:48;;;;;;;16.13;12.33;;;8.00;99.90;;;;;;5052936;28;20430;-51
2021/11/17 08:51:18;;;;;;;16.03;11.33;;;8.30;99.90;;;;;;5053170;28;20430;-51
2021/11/17 08:53:48;;;;;;;15.27;11.43;;;8.00;99.90;;;;;;5053331;28;20464;-50
2021/11/17 08:56:16;;;;;;;17.40;11.80;;;8.10;99.90;;;;;;5053224;28;20428;-50
2021/11/17 08:58:44;;;;;;;19.60;12.20;;;8.20;99.90;;;;;;5052875;28;20434;-52
2021/11/17 09:01:12;;;;;;;15.90;12.37;;;8.30;99.90;;;;;;5053261;28;20412;-51
2021/11/17 09:03:40;;;;;;;15.90;12.60;;;8.00;99.90;;;;;;5052915;28;20495;-52
2021/11/17 09:06:09;;;;;;;18.50;13.70;;;8.10;99.90;;;;;;5053014;28;20458;-50
2021/11/17 09:08:37;;;;;;;21.00;13.30;;;8.20;99.90;;;;;;5052201;28;20441;-52
2021/11/17 09:11:07;;;;;;;16.80;11.50;;;8.10;99.90;;;;;;5053005;28;20439;-51
2021/11/17 09:13:34;;;;;;;20.20;13.53;;;8.50;99.90;;;;;;5053010;28;20435;-51
2021/11/17 09:16:03;;;;;;;16.50;12.00;;;7.90;99.90;;;;;;5052853;28;21022;-51
2021/11/17 09:18:33;;;;;;;16.67;12.23;;;8.00;99.90;;;;;;5052234;28;20778;-50
2021/11/17 09:21:03;;;;;;;23.77;13.20;;;7.80;99.90;;;;;;5052573;28;20426;-50
2021/11/17 09:23:30;;;;;;;22.17;13.60;;;8.00;99.90;;;;;;5053053;28;20800;-50
2021/11/17 09:26:00;;;;;;;13.30;10.60;;;7.50;99.90;;;;;;5052392;28;20578;-50
2021/11/17 09:28:29;;;;;;;20.53;12.73;;;8.10;99.90;;;;;;5052167;28;20437;-50
2021/11/17 09:30:56;;;;;;;18.23;12.00;;;8.00;99.90;;;;;;5052447;28;20932;-50
2021/11/17 09:33:24;;;;;;;17.27;12.93;;;8.20;99.90;;;;;;5051928;28;20442;-49
2021/11/17 09:35:52;;;;;;;16.53;12.53;;;8.00;99.90;;;;;;5052522;28;20473;-52
2021/11/17 09:38:21;;;;;;;15.30;12.50;;;8.00;99.90;;;;;;5051776;28;20446;-52
2021/11/17 09:40:51;;;;;;;22.93;13.83;;;8.60;99.90;;;;;;5052408;28;20808;-50
2021/11/17 09:43:22;;;;;;;16.97;11.63;;;8.00;99.90;;;;;;5052157;28;20437;-50
2021/11/17 09:45:51;;;;;;;16.03;11.80;;;8.60;99.90;;;;;;5051941;28;20466;-51
2021/11/17 09:48:20;;;;;;;16.20;12.33;;;8.10;99.90;;;;;;5032805;28;20570;-51
2021/11/17 09:50:51;;;;;;;24.33;13.93;;;7.90;99.90;;;;;;5052642;28;20436;-52
2021/11/17 09:53:24;;;;;;;18.17;12.23;;;8.00;99.90;;;;;;5052052;28;20431;-52
2021/11/17 09:55:54;;;;;;;22.10;13.67;;;7.80;99.90;;;;;;5052381;28;20434;-50
2021/11/17 09:58:24;;;;;;;18.50;12.57;;;8.10;99.90;;;;;;5051588;28;20816;-50
2021/11/17 10:00:55;;;;;;;19.40;13.10;;;8.10;99.90;;;;;;5034023;28;20445;-52
2021/11/17 10:03:29;;;;;;;18.80;12.83;;;8.30;99.90;;;;;;5051662;28;20437;-50
2021/11/17 10:06:28;;;;;;;16.70;11.80;;;8.30;99.90;;;;;;5051667;28;20441;-52
2021/11/17 10:09:27;;;;;;;17.03;12.73;;;8.40;99.90;;;;;;5050901;28;20558;-50
2021/11/17 10:12:14;;;;;;;17.27;11.90;;;8.10;99.90;;;;;;5051544;28;20449;-50
2021/11/17 10:14:49;;;;;;;14.90;11.50;;;8.60;99.90;;;;;;5051590;28;20512;-50
2021/11/17 10:17:37;;;;;;;18.13;12.67;;;8.10;99.90;;;;;;5051123;28;20519;-50
2021/11/17 10:20:12;;;;;;;16.80;12.00;;;8.60;99.90;;;;;;5051881;28;20443;-51
2021/11/17 10:22:40;;;;;;;39.37;13.70;;;8.60;99.90;;;;;;5033305;28;20819;-50
2021/11/17 10:25:11;;;;;;;24.83;12.27;;;8.10;99.90;;;;;;5051526;28;20457;-50
2021/11/17 10:27:49;;;;;;;18.37;11.90;;;8.30;99.90;;;;;;5051442;28;20462;-51
2021/11/17 10:30:26;;;;;;;17.17;11.30;;;8.30;99.90;;;;;;5051964;28;20430;-53
2021/11/17 10:33:03;;;;;;;21.63;12.77;;;8.30;99.90;;;;;;5051546;28;20423;-51
2021/11/17 10:35:33;;;;;;;26.47;12.67;;;8.40;99.90;;;;;;5051006;28;20442;-51
2021/11/17 10:38:05;;;;;;;19.67;13.10;;;7.90;99.90;;;;;;5050791;28;20425;-50
2021/11/17 10:40:42;;;;;;;17.63;11.07;;;8.20;99.90;;;;;;5050935;28;20441;-51
2021/11/17 10:43:18;;;;;;;17.90;11.70;;;8.70;99.90;;;;;;5051221;28;20848;-50
2021/11/17 10:45:49;;;;;;;19.30;11.47;;;8.10;99.90;;;;;;5051465;28;20427;-50
2021/11/17 10:48:24;;;;;;;14.83;11.00;;;8.70;99.90;;;;;;5051097;28;20493;-50
2021/11/17 10:50:51;;;;;;;18.40;11.07;;;8.60;99.90;;;;;;5051234;28;20428;-51
2021/11/17 10:53:29;;;;;;;21.73;12.40;;;8.30;99.90;;;;;;5051160;28;20446;-50
2021/11/17 10:56:01;;;;;;;17.60;10.63;;;8.40;99.90;;;;;;5051028;28;20430;-50
2021/11/17 10:58:30;;;;;;;18.23;11.90;;;7.90;99.90;;;;;;5050818;28;20478;-50
2021/11/17 11:01:00;;;;;;;16.30;12.23;;;8.50;99.90;;;;;;5051175;28;20429;-51
2021/11/17 11:03:29;;;;;;;14.30;11.70;;;8.20;99.90;;;;;;5051270;28;20445;-51
2021/11/17 11:06:04;;;;;;;18.90;13.30;;;8.10;99.90;;;;;;5051100;28;20415;-48
2021/11/17 11:08:37;;;;;;;15.73;10.77;;;8.40;99.90;;;;;;5050328;28;20517;-50
2021/11/17 11:11:06;;;;;;;18.33;11.90;;;8.30;99.90;;;;;;5051303;28;20430;-54
2021/11/17 11:13:37;;;;;;;15.80;10.70;;;7.90;99.90;;;;;;5050999;28;20444;-50
2021/11/17 11:16:13;;;;;;;17.30;11.70;;;8.30;99.90;;;;;;5050861;28;20464;-50
2021/11/17 11:18:45;;;;;;;15.97;10.67;;;8.30;99.90;;;;;;5051850;28;20441;-48
2021/11/17 11:21:15;;;;;;;16.07;11.40;;;8.20;99.90;;;;;;5051611;28;20467;-48
2021/11/17 11:24:10;;;;;;;18.83;12.07;;;8.00;99.90;;;;;;5051330;28;20441;-48
2021/11/17 11:27:13;;;;;;;14.80;10.73;;;8.60;99.90;;;;;;5050593;28;20444;-48
2021/11/17 11:29:42;;;;;;;15.63;11.63;;;8.40;99.90;;;;;;5050415;28;20672;-48
2021/11/17 11:32:20;;;;;;;15.30;11.20;;;8.60;99.90;;;;;;5050840;28;20442;-48
2021/11/17 11:35:08;;;;;;;15.47;11.13;;;8.10;99.90;;;;;;5050866;28;20533;-51
2021/11/17 11:38:09;;;;;;;13.40;10.70;;;8.50;99.90;;;;;;5050152;28;20533;-49
2021/11/17 11:41:03;;;;;;;14.70;10.87;;;8.60;99.90;;;;;;4969562;28;20463;-48
2021/11/17 11:43:30;;;;;;;17.33;10.90;;;8.40;99.90;;;;;;4969675;28;20565;-51
2021/11/17 11:46:17;;;;;;;16.10;10.73;;;8.50;99.90;;;;;;4969494;28;21080;-48
2021/11/17 11:49:10;;;;;;;21.00;10.67;;;8.60;99.90;;;;;;4952754;28;20482;-49
2021/11/17 11:51:51;;;;;;;15.70;12.30;;;8.30;99.90;;;;;;4969844;28;20449;-49
2021/11/17 11:54:25;;;;;;;16.80;11.80;;;8.20;99.90;;;;;;4969989;28;20451;-49
2021/11/17 11:56:55;;;;;;;17.23;11.40;;;7.80;99.90;;;;;;4969395;28;20829;-48
2021/11/17 11:59:26;;;;;;;22.80;12.13;;;7.90;99.90;;;;;;4968923;28;20417;-49
2021/11/17 12:02:07;;;;;;;15.90;11.40;;;8.60;99.90;;;;;;4970702;28;20481;-49
2021/11/17 12:04:42;;;;;;;15.97;10.27;;;8.90;99.90;;;;;;4969057;28;20441;-48
2021/11/17 12:07:19;;;;;;;15.03;10.00;;;8.40;99.90;;;;;;4968759;28;20463;-49
2021/11/17 12:10:08;;;;;;;14.27;11.40;;;8.30;99.90;;;;;;4968905;28;20476;-49
2021/11/17 12:12:37;;;;;;;15.33;10.23;;;8.10;99.90;;;;;;5029235;28;20450;-49
2021/11/17 12:15:19;;;;;;;17.10;10.70;;;8.70;99.90;;;;;;5053541;28;20621;-50
2021/11/17 12:17:46;;;;;;;14.60;10.43;;;8.90;99.90;;;;;;5054159;28;20476;-50
2021/11/17 12:20:25;;;;;;;16.17;11.40;;;8.50;99.90;;;;;;5055207;28;20771;-47
2021/11/17 12:22:55;;;;;;;13.60;9.70;;;8.60;99.90;;;;;;5054779;28;21042;-49
2021/11/17 12:25:24;;;;;;;14.80;11.17;;;8.00;99.90;;;;;;5053730;28;20736;-51
2021/11/17 12:27:58;;;;;;;25.30;15.57;;;8.50;99.90;;;;;;5053942;28;20460;-48
2021/11/17 12:30:35;;;;;;;19.03;12.50;;;8.50;99.90;;;;;;5052629;28;20432;-49
2021/11/17 12:33:11;;;;;;;14.57;11.47;;;8.50;99.90;;;;;;5053388;28;20807;-50
2021/11/17 12:35:42;;;;;;;14.53;10.93;;;8.70;99.90;;;;;;5033731;28;20514;-50
2021/11/17 12:38:12;;;;;;;15.40;11.80;;;8.00;99.90;;;;;;5038905;28;20465;-50
2021/11/17 12:40:44;;;;;;;16.40;10.37;;;8.60;99.90;;;;;;5053693;28;20393;-47
2021/11/17 12:43:13;;;;;;;13.53;9.50;;;8.20;99.90;;;;;;5053695;28;20504;-50
2021/11/17 12:45:46;;;;;;;13.10;9.17;;;8.20;99.90;;;;;;5053732;28;20512;-51
2021/11/17 12:48:23;;;;;;;13.77;8.83;;;8.70;99.90;;;;;;5053007;28;20453;-49
2021/11/17 12:50:59;;;;;;;10.13;8.27;;;8.90;99.90;;;;;;5053362;28;20449;-50
2021/11/17 12:53:28;;;;;;;11.10;8.97;;;8.80;99.90;;;;;;5053916;28;20438;-50
2021/11/17 12:55:58;;;;;;;9.97;8.20;;;9.00;99.90;;;;;;5052153;28;20439;-49
2021/11/17 12:58:32;;;;;;;13.87;8.80;;;9.10;99.90;;;;;;5052446;28;20434;-50
2021/11/17 13:01:16;;;;;;;12.80;8.77;;;8.80;99.90;;;;;;5053383;28;20825;-50
2021/11/17 13:03:59;;;;;;;12.40;8.33;;;8.70;99.90;;;;;;5053165;28;20421;-49
2021/11/17 13:06:30;;;;;;;11.33;8.30;;;9.00;99.90;;;;;;5052949;28;20552;-47
2021/11/17 13:09:11;;;;;;;14.07;8.90;;;8.90;99.90;;;;;;5052641;28;20544;-48
2021/11/17 13:11:56;;;;;;;12.27;8.33;;;8.60;99.90;;;;;;5052631;28;20818;-50
2021/11/17 13:14:27;;;;;;;10.97;8.27;;;9.20;99.90;;;;;;5052808;28;20435;-48
2021/11/17 13:17:08;;;;;;;11.67;8.10;;;9.00;99.90;;;;;;5034297;28;20486;-48
2021/11/17 13:19:37;;;;;;;14.27;8.13;;;9.00;99.90;;;;;;5052624;28;21092;-47
2021/11/17 13:22:20;;;;;;;11.73;8.20;;;8.60;99.90;;;;;;5033680;28;20454;-49
2021/11/17 13:24:50;;;;;;;13.57;8.20;;;9.10;99.90;;;;;;5053311;28;20508;-49
2021/11/17 13:27:22;;;;;;;12.70;7.93;;;9.30;99.90;;;;;;5052823;28;20434;-49
2021/11/17 13:29:53;;;;;;;37.83;27.70;;;8.70;99.90;;;;;;5052336;28;20489;-50
2021/11/17 13:32:34;;;;;;;23.90;19.77;;;9.10;99.90;;;;;;5052552;28;20533;-50
2021/11/17 13:35:17;;;;;;;10.00;7.90;;;9.20;99.90;;;;;;5052573;28;20430;-49
2021/11/17 13:37:46;;;;;;;11.80;7.67;;;8.90;99.90;;;;;;5051609;28;20470;-51
2021/11/17 13:40:17;;;;;;;8.87;6.73;;;9.20;99.90;;;;;;5052936;28;20472;-48
2021/11/17 13:42:44;;;;;;;10.93;7.87;;;9.20;99.90;;;;;;5052846;28;20443;-47
2021/11/17 13:45:14;;;;;;;11.00;8.40;;;9.20;99.90;;;;;;5052591;28;20517;-50
2021/11/17 13:47:41;;;;;;;13.87;10.50;;;9.30;99.90;;;;;;5051660;28;20936;-49
2021/11/17 13:50:10;;;;;;;15.30;9.87;;;9.20;99.90;;;;;;5052714;28;20437;-51
2021/11/17 13:52:43;;;;;;;16.43;9.63;;;9.20;99.90;;;;;;5052231;28;20438;-51
2021/11/17 13:55:14;;;;;;;10.80;8.80;;;9.20;99.90;;;;;;5052360;28;20844;-48
2021/11/17 13:57:43;;;;;;;13.00;9.17;;;8.70;99.90;;;;;;5051824;28;20966;-49
2021/11/17 14:00:12;;;;;;;35.13;14.53;;;8.80;99.90;;;;;;5051711;28;20435;-50
2021/11/17 14:02:38;;;;;;;14.40;9.70;;;9.10;99.90;;;;;;5052107;28;20434;-48
2021/11/17 14:05:06;;;;;;;13.00;9.67;;;9.10;99.90;;;;;;5033836;28;20527;-50
2021/11/17 14:07:34;;;;;;;17.60;9.40;;;9.30;99.90;;;;;;5051916;28;20459;-49
2021/11/17 14:10:01;;;;;;;44.47;20.93;;;8.80;99.90;;;;;;5051599;28;20955;-47
2021/11/17 14:12:29;;;;;;;15.47;11.03;;;9.10;99.90;;;;;;5051297;28;20446;-50
2021/11/17 14:14:56;;;;;;;15.40;10.00;;;8.90;99.90;;;;;;5053195;28;20439;-49
2021/11/17 14:17:23;;;;;;;15.83;10.00;;;9.10;99.90;;;;;;5052778;28;20466;-48
2021/11/17 14:19:50;;;;;;;15.07;9.70;;;8.90;99.90;;;;;;5051903;28;20413;-49
2021/11/17 14:22:17;;;;;;;12.80;9.97;;;8.80;99.90;;;;;;5052071;28;20439;-49
2021/11/17 14:24:43;;;;;;;17.80;9.70;;;9.10;99.90;;;;;;5051383;28;20793;-48
2021/11/17 14:27:12;;;;;;;14.30;10.03;;;8.90;99.90;;;;;;5070340;28;20477;-49
2021/11/17 14:29:44;;;;;;;14.47;9.80;;;8.80;99.90;;;;;;5070957;28;20481;-49
2021/11/17 14:32:13;;;;;;;15.97;10.63;;;9.10;99.90;;;;;;5071330;28;20503;-49
2021/11/17 14:34:40;;;;;;;15.03;11.97;;;8.90;99.90;;;;;;5070741;28;20500;-50
2021/11/17 14:37:07;;;;;;;28.10;11.00;;;9.30;99.90;;;;;;5071199;28;20454;-48
2021/11/17 14:39:36;;;;;;;17.90;12.57;;;9.00;99.90;;;;;;5070920;28;20470;-50
2021/11/17 14:42:04;;;;;;;20.93;11.63;;;8.80;99.90;;;;;;5071176;28;20433;-51
2021/11/17 14:44:31;;;;;;;14.53;9.73;;;8.80;99.90;;;;;;5071953;28;20759;-48
2021/11/17 14:47:00;;;;;;;13.73;11.57;;;8.80;99.90;;;;;;5071435;28;20468;-49
2021/11/17 14:49:31;;;;;;;14.27;12.00;;;8.90;99.90;;;;;;5071181;28;20869;-49
2021/11/17 14:51:57;;;;;;;18.13;10.50;;;8.90;99.90;;;;;;5071236;28;20496;-49
2021/11/17 14:54:24;;;;;;;14.20;9.93;;;8.60;99.90;;;;;;5071348;28;20431;-49
2021/11/17 14:56:51;;;;;;;18.70;11.20;;;9.10;99.90;;;;;;5071022;28;21004;-48
2021/11/17 14:59:17;;;;;;;14.23;8.90;;;9.00;99.90;;;;;;5070813;28;20532;-49
2021/11/17 15:01:44;;;;;;;13.63;8.13;;;9.10;99.90;;;;;;5071437;28;20400;-49
2021/11/17 15:04:12;;;;;;;13.03;9.07;;;8.90;99.90;;;;;;5070802;28;20479;-49
2021/11/17 15:06:42;;;;;;;13.50;9.53;;;9.00;99.90;;;;;;5071236;28;20424;-48
2021/11/17 15:09:10;;;;;;;11.90;9.23;;;8.50;99.90;;;;;;5070342;28;20471;-48
2021/11/17 15:11:46;;;;;;;12.10;9.87;;;9.10;99.90;;;;;;5071080;28;20442;-49
2021/11/17 15:14:13;;;;;;;21.70;10.57;;;9.20;99.90;;;;;;5072029;28;20811;-48
2021/11/17 15:16:40;;;;;;;24.63;19.73;;;9.30;99.90;;;;;;5071128;28;20432;-48
2021/11/17 15:19:06;;;;;;;16.40;12.20;;;8.60;99.90;;;;;;5070650;28;20430;-49
2021/11/17 15:21:34;;;;;;;18.53;11.60;;;8.50;99.90;;;;;;5071456;28;20440;-49
2021/11/17 15:24:01;;;;;;;14.73;10.53;;;8.80;99.90;;;;;;5070643;28;20415;-48
2021/11/17 15:26:28;;;;;;;11.97;9.30;;;9.20;99.90;;;;;;5070771;28;20476;-48
2021/11/17 15:28:57;;;;;;;13.40;9.87;;;8.80;99.90;;;;;;5070538;28;20565;-49
2021/11/17 15:31:27;;;;;;;16.70;10.77;;;9.00;99.90;;;;;;5070683;28;20944;-49
2021/11/17 15:33:54;;;;;;;13.20;10.37;;;8.70;99.90;;;;;;5070844;28;20923;-49
2021/11/17 15:36:22;;;;;;;11.37;9.13;;;8.90;99.90;;;;;;5070710;28;20483;-50
2021/11/17 15:38:50;;;;;;;9.70;8.33;;;8.70;99.90;;;;;;5070533;28;20485;-49
2021/11/17 15:41:21;;;;;;;13.10;9.37;;;8.70;99.90;;;;;;5070866;28;20407;-49
2021/11/17 15:43:50;;;;;;;17.30;9.13;;;8.60;99.90;;;;;;5070455;28;20446;-49